sensor_id;sensor_type;location;lat;lon;timestamp;pressure;altitude;pressure_sealevel;temperature
67829;BMP280;54626;45.436;10.942;2024-03-02T00:01:11;99710.13;;;12.59
67829;BMP280;54626;45.436;10.942;2024-03-02T00:03:39;99708.16;;;12.52
67829;BMP280;54626;45.436;10.942;2024-03-02T00:06:07;99706.84;;;12.53
67829;BMP280;54626;45.436;10.942;2024-03-02T00:08:33;99704.69;;;12.68
67829;BMP280;54626;45.436;10.942;2024-03-02T00:11:00;99705.16;;;12.57
67829;BMP280;54626;45.436;10.942;2024-03-02T00:13:27;99705.06;;;12.65
67829;BMP280;54626;45.436;10.942;2024-03-02T00:15:55;99705.25;;;12.67
67829;BMP280;54626;45.436;10.942;2024-03-02T00:20:54;99712.56;;;12.72
67829;BMP280;54626;45.436;10.942;2024-03-02T00:23:22;99705.84;;;12.82
67829;BMP280;54626;45.436;10.942;2024-03-02T00:25:50;99703.69;;;12.90
67829;BMP280;54626;45.436;10.942;2024-03-02T00:28:21;99709.00;;;12.95
67829;BMP280;54626;45.436;10.942;2024-03-02T00:30:55;99707.06;;;12.89
67829;BMP280;54626;45.436;10.942;2024-03-02T00:33:26;99706.94;;;12.96
67829;BMP280;54626;45.436;10.942;2024-03-02T00:35:53;99710.72;;;12.91
67829;BMP280;54626;45.436;10.942;2024-03-02T00:38:20;99718.53;;;12.85
67829;BMP280;54626;45.436;10.942;2024-03-02T00:40:46;99710.06;;;13.00
67829;BMP280;54626;45.436;10.942;2024-03-02T00:46:06;99720.00;;;13.03
67829;BMP280;54626;45.436;10.942;2024-03-02T00:48:34;99713.78;;;12.95
67829;BMP280;54626;45.436;10.942;2024-03-02T00:51:03;99718.38;;;13.00
67829;BMP280;54626;45.436;10.942;2024-03-02T00:53:34;99716.56;;;12.95
67829;BMP280;54626;45.436;10.942;2024-03-02T00:56:01;99713.25;;;12.96
67829;BMP280;54626;45.436;10.942;2024-03-02T00:58:27;99706.63;;;12.92
67829;BMP280;54626;45.436;10.942;2024-03-02T01:00:54;99693.97;;;12.98
67829;BMP280;54626;45.436;10.942;2024-03-02T01:03:20;99702.56;;;12.93
67829;BMP280;54626;45.436;10.942;2024-03-02T01:05:47;99707.09;;;12.98
67829;BMP280;54626;45.436;10.942;2024-03-02T01:08:13;99701.31;;;13.03
67829;BMP280;54626;45.436;10.942;2024-03-02T01:10:40;99706.78;;;12.77
67829;BMP280;54626;45.436;10.942;2024-03-02T01:13:06;99704.94;;;12.80
67829;BMP280;54626;45.436;10.942;2024-03-02T01:15:33;99702.16;;;12.80
67829;BMP280;54626;45.436;10.942;2024-03-02T01:18:00;99697.50;;;12.82
67829;BMP280;54626;45.436;10.942;2024-03-02T01:20:26;99694.63;;;12.90
67829;BMP280;54626;45.436;10.942;2024-03-02T01:22:53;99690.31;;;12.79
67829;BMP280;54626;45.436;10.942;2024-03-02T01:25:20;99697.22;;;12.71
67829;BMP280;54626;45.436;10.942;2024-03-02T01:27:46;99690.31;;;12.79
67829;BMP280;54626;45.436;10.942;2024-03-02T01:30:16;99686.81;;;12.79
67829;BMP280;54626;45.436;10.942;2024-03-02T01:32:42;99688.53;;;12.74
67829;BMP280;54626;45.436;10.942;2024-03-02T01:35:10;99688.34;;;12.72
67829;BMP280;54626;45.436;10.942;2024-03-02T01:37:37;99682.06;;;12.72
67829;BMP280;54626;45.436;10.942;2024-03-02T01:40:04;99688.75;;;12.69
67829;BMP280;54626;45.436;10.942;2024-03-02T01:42:38;99685.19;;;12.76
67829;BMP280;54626;45.436;10.942;2024-03-02T01:45:06;99689.50;;;12.69
67829;BMP280;54626;45.436;10.942;2024-03-02T01:47:34;99680.34;;;12.76
67829;BMP280;54626;45.436;10.942;2024-03-02T01:50:01;99680.97;;;12.75
67829;BMP280;54626;45.436;10.942;2024-03-02T01:52:28;99674.50;;;12.72
67829;BMP280;54626;45.436;10.942;2024-03-02T01:54:55;99677.19;;;12.80
67829;BMP280;54626;45.436;10.942;2024-03-02T01:57:23;99679.50;;;12.74
67829;BMP280;54626;45.436;10.942;2024-03-02T01:59:49;99679.63;;;12.76
67829;BMP280;54626;45.436;10.942;2024-03-02T02:02:17;99676.94;;;12.68
67829;BMP280;54626;45.436;10.942;2024-03-02T02:04:44;99682.41;;;12.76
67829;BMP280;54626;45.436;10.942;2024-03-02T02:07:10;99681.28;;;12.79
67829;BMP280;54626;45.436;10.942;2024-03-02T02:09:37;99686.06;;;12.78
67829;BMP280;54626;45.436;10.942;2024-03-02T02:12:03;99681.28;;;12.79
67829;BMP280;54626;45.436;10.942;2024-03-02T02:14:33;99678.97;;;12.85
67829;BMP280;54626;45.436;10.942;2024-03-02T02:17:00;99679.31;;;12.89
67829;BMP280;54626;45.436;10.942;2024-03-02T02:19:26;99684.22;;;12.81
67829;BMP280;54626;45.436;10.942;2024-03-02T02:21:53;99689.00;;;12.80
67829;BMP280;54626;45.436;10.942;2024-03-02T02:24:20;99689.50;;;12.86
67829;BMP280;54626;45.436;10.942;2024-03-02T02:26:46;99692.06;;;12.75
67829;BMP280;54626;45.436;10.942;2024-03-02T02:29:13;99681.28;;;12.79
67829;BMP280;54626;45.436;10.942;2024-03-02T02:31:40;99685.34;;;12.78
67829;BMP280;54626;45.436;10.942;2024-03-02T02:34:07;99687.06;;;12.73
67829;BMP280;54626;45.436;10.942;2024-03-02T02:36:33;99678.56;;;12.71
67829;BMP280;54626;45.436;10.942;2024-03-02T02:39:03;99686.56;;;12.67
67829;BMP280;54626;45.436;10.942;2024-03-02T02:41:30;99677.00;;;12.61
67829;BMP280;54626;45.436;10.942;2024-03-02T02:43:56;99670.09;;;12.52
67829;BMP280;54626;45.436;10.942;2024-03-02T02:46:23;99672.94;;;12.62
67829;BMP280;54626;45.436;10.942;2024-03-02T02:48:49;99670.75;;;12.60
67829;BMP280;54626;45.436;10.942;2024-03-02T02:51:17;99674.72;;;12.67
67829;BMP280;54626;45.436;10.942;2024-03-02T02:53:44;99669.59;;;12.63
67829;BMP280;54626;45.436;10.942;2024-03-02T02:56:10;99672.13;;;12.69
67829;BMP280;54626;45.436;10.942;2024-03-02T02:58:37;99667.72;;;12.66
67829;BMP280;54626;45.436;10.942;2024-03-02T03:01:04;99666.50;;;12.59
67829;BMP280;54626;45.436;10.942;2024-03-02T03:03:30;99674.81;;;12.59
67829;BMP280;54626;45.436;10.942;2024-03-02T03:05:58;99665.91;;;12.61
67829;BMP280;54626;45.436;10.942;2024-03-02T03:08:25;99667.47;;;12.54
67829;BMP280;54626;45.436;10.942;2024-03-02T03:10:54;99674.00;;;12.66
67829;BMP280;54626;45.436;10.942;2024-03-02T03:13:20;99663.56;;;12.74
67829;BMP280;54626;45.436;10.942;2024-03-02T03:15:47;99669.34;;;12.69
67829;BMP280;54626;45.436;10.942;2024-03-02T03:18:13;99671.94;;;12.67
67829;BMP280;54626;45.436;10.942;2024-03-02T03:20:40;99681.69;;;12.75
67829;BMP280;54626;45.436;10.942;2024-03-02T03:23:07;99677.09;;;12.70
67829;BMP280;54626;45.436;10.942;2024-03-02T03:25:33;99678.00;;;12.73
67829;BMP280;54626;45.436;10.942;2024-03-02T03:28:00;99682.56;;;12.78
67829;BMP280;54626;45.436;10.942;2024-03-02T03:30:28;99679.69;;;12.85
67829;BMP280;54626;45.436;10.942;2024-03-02T03:32:54;99683.88;;;12.77
67829;BMP280;54626;45.436;10.942;2024-03-02T03:35:20;99683.13;;;12.76
67829;BMP280;54626;45.436;10.942;2024-03-02T03:37:47;99683.78;;;12.84
67829;BMP280;54626;45.436;10.942;2024-03-02T03:40:14;99685.34;;;12.78
67829;BMP280;54626;45.436;10.942;2024-03-02T03:42:40;99684.75;;;12.79
67829;BMP280;54626;45.436;10.942;2024-03-02T03:45:07;99688.69;;;12.76
67829;BMP280;54626;45.436;10.942;2024-03-02T03:47:34;99686.56;;;12.84
67829;BMP280;54626;45.436;10.942;2024-03-02T03:50:01;99695.03;;;12.69
67829;BMP280;54626;45.436;10.942;2024-03-02T03:52:29;99692.06;;;12.75
67829;BMP280;54626;45.436;10.942;2024-03-02T03:54:55;99687.22;;;12.75
67829;BMP280;54626;45.436;10.942;2024-03-02T03:57:22;99693.88;;;12.89
67829;BMP280;54626;45.436;10.942;2024-03-02T03:59:48;99697.09;;;12.86
67829;BMP280;54626;45.436;10.942;2024-03-02T04:02:15;99691.53;;;12.86
67829;BMP280;54626;45.436;10.942;2024-03-02T04:04:45;99702.66;;;12.86
67829;BMP280;54626;45.436;10.942;2024-03-02T04:07:12;99708.59;;;12.82
67829;BMP280;54626;45.436;10.942;2024-03-02T04:09:39;99697.34;;;12.80
67829;BMP280;54626;45.436;10.942;2024-03-02T04:12:05;99699.78;;;12.76
67829;BMP280;54626;45.436;10.942;2024-03-02T04:14:32;99704.34;;;12.64
67829;BMP280;54626;45.436;10.942;2024-03-02T04:16:58;99698.63;;;12.79
67829;BMP280;54626;45.436;10.942;2024-03-02T04:19:25;99704.19;;;12.79
67829;BMP280;54626;45.436;10.942;2024-03-02T04:21:51;99700.94;;;12.73
67829;BMP280;54626;45.436;10.942;2024-03-02T04:24:18;99705.41;;;12.69
67829;BMP280;54626;45.436;10.942;2024-03-02T04:26:44;99703.47;;;12.79
67829;BMP280;54626;45.436;10.942;2024-03-02T04:29:10;99710.56;;;12.72
67829;BMP280;54626;45.436;10.942;2024-03-02T04:31:37;99711.09;;;12.71
67829;BMP280;54626;45.436;10.942;2024-03-02T04:34:03;99712.03;;;12.73
67829;BMP280;54626;45.436;10.942;2024-03-02T04:36:30;99709.63;;;12.70
67829;BMP280;54626;45.436;10.942;2024-03-02T04:38:58;99714.31;;;12.67
67829;BMP280;54626;45.436;10.942;2024-03-02T04:41:24;99718.13;;;12.72
67829;BMP280;54626;45.436;10.942;2024-03-02T04:43:50;99720.50;;;12.75
67829;BMP280;54626;45.436;10.942;2024-03-02T04:46:17;99718.69;;;12.70
67829;BMP280;54626;45.436;10.942;2024-03-02T04:48:44;99720.72;;;12.70
67829;BMP280;54626;45.436;10.942;2024-03-02T04:51:11;99722.38;;;12.73
67829;BMP280;54626;45.436;10.942;2024-03-02T04:53:37;99730.19;;;12.67
67829;BMP280;54626;45.436;10.942;2024-03-02T04:56:06;99720.97;;;12.64
67829;BMP280;54626;45.436;10.942;2024-03-02T04:58:51;99731.94;;;12.62
67829;BMP280;54626;45.436;10.942;2024-03-02T05:01:18;99723.75;;;12.64
67829;BMP280;54626;45.436;10.942;2024-03-02T05:03:44;99736.16;;;12.63
67829;BMP280;54626;45.436;10.942;2024-03-02T05:06:11;99731.28;;;12.54
67829;BMP280;54626;45.436;10.942;2024-03-02T05:08:38;99737.69;;;12.57
67829;BMP280;54626;45.436;10.942;2024-03-02T05:11:04;99738.13;;;12.53
67829;BMP280;54626;45.436;10.942;2024-03-02T05:13:57;99747.66;;;12.60
67829;BMP280;54626;45.436;10.942;2024-03-02T05:16:24;99753.69;;;12.66
67829;BMP280;54626;45.436;10.942;2024-03-02T05:18:50;99754.31;;;12.57
67829;BMP280;54626;45.436;10.942;2024-03-02T05:21:17;99749.53;;;12.57
67829;BMP280;54626;45.436;10.942;2024-03-02T05:23:44;99748.22;;;12.58
67829;BMP280;54626;45.436;10.942;2024-03-02T05:26:10;99748.41;;;12.60
67829;BMP280;54626;45.436;10.942;2024-03-02T05:28:39;99748.22;;;12.58
67829;BMP280;54626;45.436;10.942;2024-03-02T05:31:05;99749.38;;;12.55
67829;BMP280;54626;45.436;10.942;2024-03-02T05:33:33;99743.97;;;12.57
67829;BMP280;54626;45.436;10.942;2024-03-02T05:35:59;99748.28;;;12.51
67829;BMP280;54626;45.436;10.942;2024-03-02T05:38:28;99747.72;;;12.52
67829;BMP280;54626;45.436;10.942;2024-03-02T05:40:55;99756.94;;;12.55
67829;BMP280;54626;45.436;10.942;2024-03-02T05:43:21;99753.91;;;12.43
67829;BMP280;54626;45.436;10.942;2024-03-02T05:45:48;99753.31;;;12.45
67829;BMP280;54626;45.436;10.942;2024-03-02T05:48:14;99757.06;;;12.40
67829;BMP280;54626;45.436;10.942;2024-03-02T05:50:41;99767.00;;;12.43
67829;BMP280;54626;45.436;10.942;2024-03-02T05:53:07;99748.75;;;12.40
67829;BMP280;54626;45.436;10.942;2024-03-02T05:55:34;99763.38;;;12.40
67829;BMP280;54626;45.436;10.942;2024-03-02T05:58:01;99765.34;;;12.47
67829;BMP280;54626;45.436;10.942;2024-03-02T06:00:33;99774.97;;;12.46
67829;BMP280;54626;45.436;10.942;2024-03-02T06:03:00;99775.47;;;12.52
67829;BMP280;54626;45.436;10.942;2024-03-02T06:05:26;99774.72;;;12.52
67829;BMP280;54626;45.436;10.942;2024-03-02T06:07:53;99778.84;;;12.43
67829;BMP280;54626;45.436;10.942;2024-03-02T06:10:19;99778.09;;;12.43
67829;BMP280;54626;45.436;10.942;2024-03-02T06:12:47;99781.50;;;12.58
67829;BMP280;54626;45.436;10.942;2024-03-02T06:15:13;99781.50;;;12.58
67829;BMP280;54626;45.436;10.942;2024-03-02T06:17:40;99785.97;;;12.54
67829;BMP280;54626;45.436;10.942;2024-03-02T06:20:06;99785.75;;;12.59
67829;BMP280;54626;45.436;10.942;2024-03-02T06:22:35;99791.34;;;12.52
67829;BMP280;54626;45.436;10.942;2024-03-02T06:25:01;99790.88;;;12.63
67829;BMP280;54626;45.436;10.942;2024-03-02T06:27:28;99794.75;;;12.67
67829;BMP280;54626;45.436;10.942;2024-03-02T06:29:54;99789.28;;;12.77
67829;BMP280;54626;45.436;10.942;2024-03-02T06:32:21;99794.09;;;12.76
67829;BMP280;54626;45.436;10.942;2024-03-02T06:34:47;99799.00;;;12.68
67829;BMP280;54626;45.436;10.942;2024-03-02T06:37:14;99800.00;;;12.80
67829;BMP280;54626;45.436;10.942;2024-03-02T06:39:43;99799.81;;;12.78
67829;BMP280;54626;45.436;10.942;2024-03-02T06:42:10;99798.34;;;12.77
67829;BMP280;54626;45.436;10.942;2024-03-02T06:44:36;99815.75;;;12.78
67829;BMP280;54626;45.436;10.942;2024-03-02T06:47:02;99808.88;;;12.79
67829;BMP280;54626;45.436;10.942;2024-03-02T06:49:30;99808.47;;;12.82
67829;BMP280;54626;45.436;10.942;2024-03-02T06:51:58;99814.16;;;12.67
67829;BMP280;54626;45.436;10.942;2024-03-02T06:54:24;99817.03;;;12.77
67829;BMP280;54626;45.436;10.942;2024-03-02T06:56:51;99820.00;;;12.79
67829;BMP280;54626;45.436;10.942;2024-03-02T06:59:17;99825.13;;;12.82
67829;BMP280;54626;45.436;10.942;2024-03-02T07:01:44;99831.97;;;12.81
67829;BMP280;54626;45.436;10.942;2024-03-02T07:04:10;99833.28;;;12.80
67829;BMP280;54626;45.436;10.942;2024-03-02T07:06:37;99833.59;;;12.84
67829;BMP280;54626;45.436;10.942;2024-03-02T07:09:03;99840.13;;;12.79
67829;BMP280;54626;45.436;10.942;2024-03-02T07:11:30;99832.47;;;12.87
67829;BMP280;54626;45.436;10.942;2024-03-02T07:13:56;99840.31;;;12.81
67829;BMP280;54626;45.436;10.942;2024-03-02T07:16:23;99847.16;;;12.80
67829;BMP280;54626;45.436;10.942;2024-03-02T07:18:56;99845.44;;;12.85
67829;BMP280;54626;45.436;10.942;2024-03-02T07:21:23;99849.28;;;12.89
67829;BMP280;54626;45.436;10.942;2024-03-02T07:23:50;99863.16;;;12.89
67829;BMP280;54626;45.436;10.942;2024-03-02T07:26:17;99859.25;;;12.92
67829;BMP280;54626;45.436;10.942;2024-03-02T07:28:48;99861.22;;;12.99
67829;BMP280;54626;45.436;10.942;2024-03-02T07:31:16;99874.09;;;12.87
67829;BMP280;54626;45.436;10.942;2024-03-02T07:33:46;99864.25;;;12.93
67829;BMP280;54626;45.436;10.942;2024-03-02T07:36:13;99869.53;;;12.99
67829;BMP280;54626;45.436;10.942;2024-03-02T07:38:40;99869.31;;;13.04
67829;BMP280;54626;45.436;10.942;2024-03-02T07:41:08;99876.53;;;13.07
67829;BMP280;54626;45.436;10.942;2024-03-02T07:43:35;99881.63;;;13.11
67829;BMP280;54626;45.436;10.942;2024-03-02T07:46:02;99882.88;;;13.00
67829;BMP280;54626;45.436;10.942;2024-03-02T07:48:29;99888.31;;;13.08
67829;BMP280;54626;45.436;10.942;2024-03-02T07:50:57;99888.81;;;13.14
67829;BMP280;54626;45.436;10.942;2024-03-02T07:53:23;99895.69;;;13.13
67829;BMP280;54626;45.436;10.942;2024-03-02T07:55:50;99898.06;;;13.16
67829;BMP280;54626;45.436;10.942;2024-03-02T07:58:16;99898.31;;;13.11
67829;BMP280;54626;45.436;10.942;2024-03-02T08:00:44;99902.56;;;13.12
67829;BMP280;54626;45.436;10.942;2024-03-02T08:03:11;99896.81;;;13.10
67829;BMP280;54626;45.436;10.942;2024-03-02T08:05:38;99904.09;;;13.05
67829;BMP280;54626;45.436;10.942;2024-03-02T08:08:05;99912.50;;;13.15
67829;BMP280;54626;45.436;10.942;2024-03-02T08:10:32;99913.00;;;13.21
67829;BMP280;54626;45.436;10.942;2024-03-02T08:13:00;99909.91;;;13.17
67829;BMP280;54626;45.436;10.942;2024-03-02T08:15:26;99912.13;;;13.18
67829;BMP280;54626;45.436;10.942;2024-03-02T08:17:53;99917.19;;;13.12
67829;BMP280;54626;45.436;10.942;2024-03-02T08:20:19;99919.47;;;13.23
67829;BMP280;54626;45.436;10.942;2024-03-02T08:22:46;99921.44;;;13.30
67829;BMP280;54626;45.436;10.942;2024-03-02T08:25:13;99922.00;;;13.29
67829;BMP280;54626;45.436;10.942;2024-03-02T08:27:40;99920.63;;;13.20
67829;BMP280;54626;45.436;10.942;2024-03-02T08:30:07;99919.88;;;13.20
67829;BMP280;54626;45.436;10.942;2024-03-02T08:32:34;99923.47;;;13.30
67829;BMP280;54626;45.436;10.942;2024-03-02T08:35:02;99924.09;;;13.21
67829;BMP280;54626;45.436;10.942;2024-03-02T08:37:29;99926.84;;;13.04
67829;BMP280;54626;45.436;10.942;2024-03-02T08:39:56;99935.47;;;13.15
67829;BMP280;54626;45.436;10.942;2024-03-02T08:42:22;99936.84;;;13.24
67829;BMP280;54626;45.436;10.942;2024-03-02T08:44:49;99940.72;;;13.28
67829;BMP280;54626;45.436;10.942;2024-03-02T08:47:16;99940.25;;;13.15
67829;BMP280;54626;45.436;10.942;2024-03-02T08:49:42;99941.41;;;13.12
67829;BMP280;54626;45.436;10.942;2024-03-02T08:52:09;99929.91;;;13.15
67829;BMP280;54626;45.436;10.942;2024-03-02T08:54:35;99934.72;;;13.15
67829;BMP280;54626;45.436;10.942;2024-03-02T08:57:02;99933.47;;;13.08
67829;BMP280;54626;45.436;10.942;2024-03-02T08:59:29;99941.31;;;13.02
67829;BMP280;54626;45.436;10.942;2024-03-02T09:01:55;99938.94;;;12.99
67829;BMP280;54626;45.436;10.942;2024-03-02T09:04:22;99937.75;;;13.09
67829;BMP280;54626;45.436;10.942;2024-03-02T09:06:53;99937.75;;;13.09
67829;BMP280;54626;45.436;10.942;2024-03-02T09:09:19;99934.72;;;13.15
67829;BMP280;54626;45.436;10.942;2024-03-02T09:11:46;99935.38;;;13.23
67829;BMP280;54626;45.436;10.942;2024-03-02T09:14:13;99944.63;;;13.25
67829;BMP280;54626;45.436;10.942;2024-03-02T09:16:41;99947.16;;;13.31
67829;BMP280;54626;45.436;10.942;2024-03-02T09:19:08;99941.25;;;13.27
67829;BMP280;54626;45.436;10.942;2024-03-02T09:21:36;99951.91;;;13.38
67829;BMP280;54626;45.436;10.942;2024-03-02T09:24:02;99945.78;;;13.39
67829;BMP280;54626;45.436;10.942;2024-03-02T09:26:29;99954.03;;;13.47
67829;BMP280;54626;45.436;10.942;2024-03-02T09:28:56;99950.28;;;13.52
67829;BMP280;54626;45.436;10.942;2024-03-02T09:31:22;99952.84;;;13.57
67829;BMP280;54626;45.436;10.942;2024-03-02T09:33:49;99954.06;;;13.63
67829;BMP280;54626;45.436;10.942;2024-03-02T09:36:22;99950.56;;;13.63
67829;BMP280;54626;45.436;10.942;2024-03-02T09:38:49;99955.66;;;13.83
67829;BMP280;54626;45.436;10.942;2024-03-02T09:41:16;99957.75;;;14.09
67829;BMP280;54626;45.436;10.942;2024-03-02T09:43:43;99951.28;;;14.24
67829;BMP280;54626;45.436;10.942;2024-03-02T09:46:10;99955.38;;;14.23
67829;BMP280;54626;45.436;10.942;2024-03-02T09:48:37;99960.34;;;14.24
67829;BMP280;54626;45.436;10.942;2024-03-02T09:51:04;99955.00;;;14.35
67829;BMP280;54626;45.436;10.942;2024-03-02T09:53:32;99962.94;;;14.39
67829;BMP280;54626;45.436;10.942;2024-03-02T09:56:00;99960.22;;;14.48
67829;BMP280;54626;45.436;10.942;2024-03-02T09:58:27;99967.72;;;14.65
67829;BMP280;54626;45.436;10.942;2024-03-02T10:00:53;99960.16;;;14.39
67829;BMP280;54626;45.436;10.942;2024-03-02T10:03:20;99965.97;;;14.60
67829;BMP280;54626;45.436;10.942;2024-03-02T10:05:48;99966.91;;;14.72
67829;BMP280;54626;45.436;10.942;2024-03-02T10:08:15;99970.81;;;14.59
67829;BMP280;54626;45.436;10.942;2024-03-02T10:10:41;99973.31;;;14.65
67829;BMP280;54626;45.436;10.942;2024-03-02T10:13:11;99963.66;;;14.66
67829;BMP280;54626;45.436;10.942;2024-03-02T10:15:40;99969.50;;;14.60
67829;BMP280;54626;45.436;10.942;2024-03-02T10:18:11;99968.66;;;14.67
67829;BMP280;54626;45.436;10.942;2024-03-02T10:20:39;99971.28;;;14.75
67829;BMP280;54626;45.436;10.942;2024-03-02T10:23:10;99962.16;;;15.00
67829;BMP280;54626;45.436;10.942;2024-03-02T10:25:37;99971.56;;;15.05
67829;BMP280;54626;45.436;10.942;2024-03-02T10:28:16;99980.66;;;15.15
67829;BMP280;54626;45.436;10.942;2024-03-02T10:30:47;99980.44;;;15.39
67829;BMP280;54626;45.436;10.942;2024-03-02T10:33:17;99975.25;;;15.26
67829;BMP280;54626;45.436;10.942;2024-03-02T10:35:43;99976.94;;;15.48
67829;BMP280;54626;45.436;10.942;2024-03-02T10:38:11;99980.13;;;15.35
67829;BMP280;54626;45.436;10.942;2024-03-02T10:40:38;99982.56;;;15.12
67829;BMP280;54626;45.436;10.942;2024-03-02T10:43:04;99981.28;;;15.23
67829;BMP280;54626;45.436;10.942;2024-03-02T10:45:32;99970.63;;;15.38
67829;BMP280;54626;45.436;10.942;2024-03-02T10:48:00;99980.84;;;15.36
67829;BMP280;54626;45.436;10.942;2024-03-02T10:50:28;99974.44;;;15.33
67829;BMP280;54626;45.436;10.942;2024-03-02T10:52:55;99983.97;;;15.40
67829;BMP280;54626;45.436;10.942;2024-03-02T10:55:21;99983.94;;;15.30
67829;BMP280;54626;45.436;10.942;2024-03-02T10:57:52;99978.03;;;15.26
67829;BMP280;54626;45.436;10.942;2024-03-02T11:00:30;99976.16;;;15.29
67829;BMP280;54626;45.436;10.942;2024-03-02T11:03:09;99980.59;;;15.41
67829;BMP280;54626;45.436;10.942;2024-03-02T11:05:40;99978.81;;;15.36
67829;BMP280;54626;45.436;10.942;2024-03-02T11:08:12;99976.16;;;15.29
67829;BMP280;54626;45.436;10.942;2024-03-02T11:10:58;99966.91;;;15.17
67829;BMP280;54626;45.436;10.942;2024-03-02T11:13:32;99976.38;;;15.04
67829;BMP280;54626;45.436;10.942;2024-03-02T11:16:06;99967.66;;;15.27
67829;BMP280;54626;45.436;10.942;2024-03-02T11:18:36;99967.69;;;15.36
67829;BMP280;54626;45.436;10.942;2024-03-02T11:21:03;99960.34;;;15.41
67829;BMP280;54626;45.436;10.942;2024-03-02T11:23:34;99966.66;;;15.41
67829;BMP280;54626;45.436;10.942;2024-03-02T11:26:20;99965.63;;;15.37
67829;BMP280;54626;45.436;10.942;2024-03-02T11:28:48;99964.59;;;15.32
67829;BMP280;54626;45.436;10.942;2024-03-02T11:31:14;99957.63;;;15.05
67829;BMP280;54626;45.436;10.942;2024-03-02T11:33:41;99959.41;;;15.19
67829;BMP280;54626;45.436;10.942;2024-03-02T11:36:08;99949.91;;;15.32
67829;BMP280;54626;45.436;10.942;2024-03-02T11:38:37;99957.72;;;15.33
67829;BMP280;54626;45.436;10.942;2024-03-02T11:41:07;99951.22;;;15.31
67829;BMP280;54626;45.436;10.942;2024-03-02T11:43:38;99945.38;;;15.36
67829;BMP280;54626;45.436;10.942;2024-03-02T11:46:08;99949.34;;;15.33
67829;BMP280;54626;45.436;10.942;2024-03-02T11:48:39;99940.81;;;15.22
67829;BMP280;54626;45.436;10.942;2024-03-02T11:51:05;99943.91;;;15.26
67829;BMP280;54626;45.436;10.942;2024-03-02T11:53:33;99945.91;;;15.06
67829;BMP280;54626;45.436;10.942;2024-03-02T11:56:06;99942.53;;;15.08
67829;BMP280;54626;45.436;10.942;2024-03-02T11:58:36;99935.34;;;15.05
67829;BMP280;54626;45.436;10.942;2024-03-02T12:01:03;99927.63;;;15.13
67829;BMP280;54626;45.436;10.942;2024-03-02T12:03:32;99922.75;;;15.13
67829;BMP280;54626;45.436;10.942;2024-03-02T12:05:59;99917.22;;;15.42
67829;BMP280;54626;45.436;10.942;2024-03-02T12:08:26;99927.22;;;15.54
67829;BMP280;54626;45.436;10.942;2024-03-02T12:10:57;99918.38;;;15.67
67829;BMP280;54626;45.436;10.942;2024-03-02T12:13:24;99919.28;;;15.51
67829;BMP280;54626;45.436;10.942;2024-03-02T12:15:53;99913.84;;;15.71
67829;BMP280;54626;45.436;10.942;2024-03-02T12:18:21;99910.44;;;15.92
67829;BMP280;54626;45.436;10.942;2024-03-02T12:20:49;99896.09;;;15.67
67829;BMP280;54626;45.436;10.942;2024-03-02T12:23:18;99905.94;;;15.59
67829;BMP280;54626;45.436;10.942;2024-03-02T12:25:45;99905.03;;;15.66
67829;BMP280;54626;45.436;10.942;2024-03-02T12:28:12;99913.56;;;15.49
67829;BMP280;54626;45.436;10.942;2024-03-02T12:30:38;99925.16;;;15.64
67829;BMP280;54626;45.436;10.942;2024-03-02T12:33:05;99910.78;;;15.39
67829;BMP280;54626;45.436;10.942;2024-03-02T12:35:32;99922.34;;;15.36
67829;BMP280;54626;45.436;10.942;2024-03-02T12:37:58;99925.59;;;15.61
67829;BMP280;54626;45.436;10.942;2024-03-02T12:40:25;99917.81;;;15.68
67829;BMP280;54626;45.436;10.942;2024-03-02T12:42:52;99916.19;;;15.66
67829;BMP280;54626;45.436;10.942;2024-03-02T12:45:31;99926.47;;;15.54
67829;BMP280;54626;45.436;10.942;2024-03-02T12:47:59;99917.50;;;15.27
67829;BMP280;54626;45.436;10.942;2024-03-02T12:50:26;99924.38;;;15.07
67829;BMP280;54626;45.436;10.942;2024-03-02T12:52:54;99918.19;;;15.08
67829;BMP280;54626;45.436;10.942;2024-03-02T12:55:22;99924.78;;;15.03
67829;BMP280;54626;45.436;10.942;2024-03-02T12:57:50;99917.41;;;14.80
67829;BMP280;54626;45.436;10.942;2024-03-02T13:00:21;99921.44;;;14.60
67829;BMP280;54626;45.436;10.942;2024-03-02T13:02:49;99916.16;;;14.64
67829;BMP280;54626;45.436;10.942;2024-03-02T13:05:18;99916.50;;;14.68
67829;BMP280;54626;45.436;10.942;2024-03-02T13:07:47;99912.13;;;14.74
67829;BMP280;54626;45.436;10.942;2024-03-02T13:10:14;99919.75;;;14.74
67829;BMP280;54626;45.436;10.942;2024-03-02T13:12:40;99916.34;;;14.66
67829;BMP280;54626;45.436;10.942;2024-03-02T13:15:08;99910.75;;;14.66
67829;BMP280;54626;45.436;10.942;2024-03-02T13:17:35;99904.94;;;14.71
67829;BMP280;54626;45.436;10.942;2024-03-02T13:20:07;99910.06;;;14.75
67829;BMP280;54626;45.436;10.942;2024-03-02T13:22:37;99895.97;;;14.63
67829;BMP280;54626;45.436;10.942;2024-03-02T13:25:10;99897.94;;;14.80
67829;BMP280;54626;45.436;10.942;2024-03-02T13:27:38;99897.50;;;14.83
67829;BMP280;54626;45.436;10.942;2024-03-02T13:30:06;99890.50;;;15.10
67829;BMP280;54626;45.436;10.942;2024-03-02T13:32:39;99889.97;;;15.50
67829;BMP280;54626;45.436;10.942;2024-03-02T13:35:06;99894.19;;;15.69
67829;BMP280;54626;45.436;10.942;2024-03-02T13:37:33;99895.09;;;15.72
67829;BMP280;54626;45.436;10.942;2024-03-02T13:39:59;99883.13;;;15.90
67829;BMP280;54626;45.436;10.942;2024-03-02T13:42:29;99882.72;;;15.84
67829;BMP280;54626;45.436;10.942;2024-03-02T13:44:56;99883.72;;;15.98
67829;BMP280;54626;45.436;10.942;2024-03-02T13:47:22;99877.78;;;15.55
67829;BMP280;54626;45.436;10.942;2024-03-02T13:49:49;99872.50;;;15.40
67829;BMP280;54626;45.436;10.942;2024-03-02T13:52:16;99876.47;;;15.27
67829;BMP280;54626;45.436;10.942;2024-03-02T13:54:45;99876.91;;;15.33
67829;BMP280;54626;45.436;10.942;2024-03-02T13:57:12;99873.78;;;15.67
67829;BMP280;54626;45.436;10.942;2024-03-02T13:59:40;99875.09;;;16.25
67829;BMP280;54626;45.436;10.942;2024-03-02T14:02:09;99878.25;;;16.00
67829;BMP280;54626;45.436;10.942;2024-03-02T14:04:37;99873.06;;;15.76